createdAt,value
2019-05-18T00:00:41.139Z,9.04
2019-05-18T00:01:41.148Z,9.05
2019-05-18T00:02:41.114Z,9.02
2019-05-18T00:03:41.107Z,9.01
2019-05-18T00:04:41.121Z,9.13
2019-05-18T00:05:41.086Z,9.01
2019-05-18T00:06:41.068Z,9.02
2019-05-18T00:07:41.127Z,9.04
2019-05-18T00:08:41.061Z,9.08
2019-05-18T00:09:41.041Z,9.01
2019-05-18T00:10:41.052Z,9.02
2019-05-18T00:11:41.017Z,9.01
2019-05-18T00:12:41.031Z,9.02
2019-05-18T00:13:41.019Z,9.13
2019-05-18T00:14:40.982Z,9.02
2019-05-18T00:15:40.966Z,8.98
2019-05-18T00:16:40.957Z,9.01
2019-05-18T00:17:40.969Z,8.99
2019-05-18T00:18:40.933Z,8.99
2019-05-18T00:19:40.946Z,8.96
2019-05-18T00:20:40.940Z,8.89
2019-05-18T00:21:40.897Z,8.92
2019-05-18T00:22:40.889Z,8.86
2019-05-18T00:23:40.908Z,8.81
2019-05-18T00:24:40.867Z,8.84
2019-05-18T00:25:40.888Z,8.84
2019-05-18T00:26:40.848Z,8.92
2019-05-18T00:27:40.836Z,8.84
2019-05-18T00:28:40.844Z,8.74
2019-05-18T00:29:40.815Z,8.81
2019-05-18T00:30:40.798Z,8.76
2019-05-18T00:31:40.831Z,8.63
2019-05-18T00:32:40.799Z,8.71
2019-05-18T00:33:40.760Z,8.68
2019-05-18T00:34:40.801Z,8.68
2019-05-18T00:35:40.745Z,8.73
2019-05-18T00:36:40.744Z,8.66
2019-05-18T00:37:40.736Z,8.65
2019-05-18T00:38:40.706Z,8.63
2019-05-18T00:39:40.729Z,8.58
2019-05-18T00:40:40.692Z,8.61
2019-05-18T00:41:40.676Z,8.63
2019-05-18T00:42:40.662Z,8.62
2019-05-18T00:43:40.687Z,8.63
2019-05-18T00:44:40.667Z,8.62
2019-05-18T00:45:40.649Z,8.62
2019-05-18T00:46:40.624Z,8.62
2019-05-18T00:47:42.122Z,8.62
2019-05-18T00:48:40.592Z,8.61
2019-05-18T00:49:40.621Z,8.61
2019-05-18T00:50:40.596Z,8.53
2019-05-18T00:51:40.573Z,8.56
2019-05-18T00:52:40.550Z,8.58
2019-05-18T00:53:40.537Z,8.45
2019-05-18T00:54:40.566Z,8.52
2019-05-18T00:55:40.513Z,8.52
2019-05-18T00:56:40.542Z,8.45
2019-05-18T00:57:40.501Z,8.43
2019-05-18T00:58:40.478Z,8.43
2019-05-18T00:59:40.498Z,8.40
2019-05-18T01:00:40.460Z,8.34
2019-05-18T01:01:40.452Z,8.34
2019-05-18T01:02:40.497Z,8.37
2019-05-18T01:03:40.426Z,8.29
2019-05-18T01:04:40.410Z,8.29
2019-05-18T01:05:40.406Z,8.26
2019-05-18T01:06:40.400Z,8.29
2019-05-18T01:07:40.415Z,8.29
2019-05-18T01:08:40.402Z,8.12
2019-05-18T01:09:40.363Z,8.15
2019-05-18T01:10:40.378Z,8.19
2019-05-18T01:11:40.337Z,8.18
2019-05-18T01:12:40.322Z,8.18
2019-05-18T01:13:40.312Z,8.12
2019-05-18T01:14:40.337Z,8.05
2019-05-18T01:15:40.318Z,8.12
2019-05-18T01:16:40.283Z,8.01
2019-05-18T01:17:40.317Z,8.00
2019-05-18T01:18:40.263Z,7.95
2019-05-18T01:19:40.260Z,7.95
2019-05-18T01:20:40.257Z,7.98
2019-05-18T01:21:40.225Z,7.93
2019-05-18T01:22:40.244Z,7.92
2019-05-18T01:23:40.204Z,7.92
2019-05-18T01:24:40.187Z,7.93
2019-05-18T01:25:40.213Z,7.86
2019-05-18T01:26:40.190Z,7.90
2019-05-18T01:27:40.169Z,7.90
2019-05-18T01:28:40.157Z,7.98
2019-05-18T01:29:40.160Z,7.97
2019-05-18T01:30:40.125Z,7.93
2019-05-18T01:31:40.140Z,7.97
2019-05-18T01:32:40.128Z,7.95
2019-05-18T01:33:40.090Z,7.98
2019-05-18T01:34:40.082Z,7.95
2019-05-18T01:35:40.068Z,8.01
2019-05-18T01:36:40.077Z,8.04
2019-05-18T01:37:40.047Z,7.90
2019-05-18T01:38:40.059Z,8.02
2019-05-18T01:39:40.046Z,8.07
2019-05-18T01:40:40.010Z,8.05
2019-05-18T01:41:40.003Z,8.18
2019-05-18T01:42:39.988Z,8.16
2019-05-18T01:43:40.011Z,8.12
2019-05-18T01:44:39.992Z,8.15
2019-05-18T01:45:39.954Z,8.15
2019-05-18T01:46:39.941Z,8.19
2019-05-18T01:47:39.940Z,8.29
2019-05-18T01:48:39.967Z,8.26
2019-05-18T01:49:39.915Z,8.26
2019-05-18T01:50:39.916Z,8.25
2019-05-18T01:51:39.885Z,8.33
2019-05-18T01:52:39.874Z,8.40
2019-05-18T01:53:39.896Z,8.36
2019-05-18T01:54:39.854Z,8.36
2019-05-18T01:55:39.844Z,8.33
2019-05-18T01:56:39.839Z,8.40
2019-05-18T01:57:39.818Z,8.44
2019-05-18T01:58:39.840Z,8.47
2019-05-18T01:59:39.795Z,8.44
2019-05-18T02:00:39.786Z,8.50
2019-05-18T02:01:39.793Z,8.58
2019-05-18T02:02:39.760Z,8.59
2019-05-18T02:03:39.784Z,8.58
2019-05-18T02:04:39.740Z,8.62
2019-05-18T02:05:39.783Z,8.65
2019-05-18T02:06:39.716Z,8.66
2019-05-18T02:07:39.773Z,8.74
2019-05-18T02:08:39.693Z,8.70
2019-05-18T02:09:39.698Z,8.73
2019-05-18T02:10:39.670Z,8.77
2019-05-18T02:11:39.667Z,8.80
2019-05-18T02:12:39.674Z,8.79
2019-05-18T02:13:39.658Z,8.77
2019-05-18T02:14:39.648Z,8.84
2019-05-18T02:15:39.620Z,8.87
2019-05-18T02:16:39.604Z,8.86
2019-05-18T02:17:39.590Z,8.84
2019-05-18T02:18:39.578Z,8.84
2019-05-18T02:19:39.614Z,8.80
2019-05-18T02:20:39.574Z,8.86
2019-05-18T02:21:39.554Z,8.87
2019-05-18T02:22:39.545Z,8.86
2019-05-18T02:23:39.527Z,8.83
2019-05-18T02:24:39.536Z,8.87
2019-05-18T02:25:39.536Z,8.79
2019-05-18T02:26:39.510Z,8.84
2019-05-18T02:27:39.483Z,8.84
2019-05-18T02:28:39.474Z,8.80
2019-05-18T02:29:39.480Z,8.80
2019-05-18T02:30:39.446Z,8.87
2019-05-18T02:31:39.473Z,8.83
2019-05-18T02:32:39.425Z,8.86
2019-05-18T02:33:39.424Z,8.87
2019-05-18T02:34:39.426Z,8.86
2019-05-18T02:35:39.388Z,8.84
2019-05-18T02:36:39.381Z,8.86
2019-05-18T02:37:39.383Z,8.89
2019-05-18T02:38:39.386Z,8.83
2019-05-18T02:39:39.357Z,8.81
2019-05-18T02:40:39.333Z,8.84
2019-05-18T02:41:39.321Z,8.80
2019-05-18T02:42:39.312Z,8.80
2019-05-18T02:43:39.348Z,8.81
2019-05-18T02:44:39.298Z,8.84
2019-05-18T02:45:39.281Z,8.86
2019-05-18T02:46:39.259Z,8.84
2019-05-18T02:47:39.263Z,8.84
2019-05-18T02:48:49.609Z,8.76
2019-05-18T02:49:40.229Z,8.83
2019-05-18T02:50:39.247Z,8.84
2019-05-18T02:51:39.204Z,8.86
2019-05-18T02:52:39.194Z,8.80
2019-05-18T02:53:39.211Z,8.83
2019-05-18T02:54:39.177Z,8.81
2019-05-18T02:55:39.187Z,8.81
2019-05-18T02:56:39.176Z,8.76
2019-05-18T02:57:39.147Z,8.77
2019-05-18T02:58:39.148Z,8.81
2019-05-18T02:59:39.120Z,8.76
2019-05-18T03:00:39.117Z,8.68
2019-05-18T03:01:39.105Z,8.83
2019-05-18T03:02:39.167Z,8.81
2019-05-18T03:03:39.069Z,8.77
2019-05-18T03:04:39.066Z,8.81
2019-05-18T03:05:39.051Z,8.81
2019-05-18T03:06:39.043Z,8.74
2019-05-18T03:07:39.069Z,8.68
2019-05-18T03:08:39.039Z,8.74
2019-05-18T03:09:39.007Z,8.73
2019-05-18T03:10:38.996Z,8.65
2019-05-18T03:11:38.988Z,8.71
2019-05-18T03:12:39.005Z,8.81
2019-05-18T03:13:38.991Z,8.81
2019-05-18T03:14:38.968Z,8.68
2019-05-18T03:15:38.936Z,8.74
2019-05-18T03:16:38.924Z,8.68
2019-05-18T03:17:38.952Z,8.68
2019-05-18T03:18:38.936Z,8.62
2019-05-18T03:19:38.900Z,8.66
2019-05-18T03:20:38.920Z,8.70
2019-05-18T03:21:38.871Z,8.68
2019-05-18T03:22:38.863Z,8.63
2019-05-18T03:23:38.873Z,8.68
2019-05-18T03:24:38.835Z,8.68
2019-05-18T03:25:38.822Z,8.62
2019-05-18T03:26:38.836Z,8.68
2019-05-18T03:27:38.815Z,8.76
2019-05-18T03:28:38.817Z,8.68
2019-05-18T03:29:38.787Z,8.63
2019-05-18T03:30:38.775Z,8.70
2019-05-18T03:31:38.761Z,8.59
2019-05-18T03:32:38.822Z,8.61
2019-05-18T03:33:38.741Z,8.58
2019-05-18T03:34:38.725Z,8.63
2019-05-18T03:35:38.759Z,8.63
2019-05-18T03:36:38.700Z,8.63
2019-05-18T03:37:38.728Z,8.61
2019-05-18T03:38:38.703Z,8.61
2019-05-18T03:39:38.668Z,8.61
2019-05-18T03:40:38.658Z,8.61
2019-05-18T03:41:38.650Z,8.58
2019-05-18T03:42:38.670Z,8.56
2019-05-18T03:43:38.644Z,8.59
2019-05-18T03:44:38.612Z,8.62
2019-05-18T03:45:38.600Z,8.53
2019-05-18T03:46:38.623Z,8.61
2019-05-18T03:47:38.589Z,8.63
2019-05-18T03:48:38.567Z,8.59
2019-05-18T03:49:38.580Z,8.61
2019-05-18T03:50:38.571Z,8.59
2019-05-18T03:51:38.568Z,8.62
2019-05-18T03:52:38.518Z,8.65
2019-05-18T03:53:38.504Z,8.63
2019-05-18T03:54:38.530Z,8.73
2019-05-18T03:55:38.507Z,8.65
2019-05-18T03:56:38.479Z,8.63
2019-05-18T03:57:38.469Z,8.61
2019-05-18T03:58:38.457Z,8.56
2019-05-18T03:59:38.471Z,8.62
2019-05-18T04:00:38.424Z,8.63
2019-05-18T04:01:38.477Z,8.61
2019-05-18T04:02:38.423Z,8.63
2019-05-18T04:03:38.401Z,8.66
2019-05-18T04:04:38.378Z,8.65
2019-05-18T04:05:38.394Z,8.59
2019-05-18T04:06:38.388Z,8.68
2019-05-18T04:07:38.391Z,8.68
2019-05-18T04:08:38.335Z,8.62
2019-05-18T04:09:38.334Z,8.58
2019-05-18T04:10:38.333Z,8.66
2019-05-18T04:11:38.337Z,8.66
2019-05-18T04:12:38.293Z,8.65
2019-05-18T04:13:38.327Z,8.66
2019-05-18T04:14:38.278Z,8.70
2019-05-18T04:15:38.256Z,8.58
2019-05-18T04:16:38.274Z,8.62
2019-05-18T04:17:38.238Z,8.68
2019-05-18T04:18:38.231Z,8.71
2019-05-18T04:19:46.217Z,8.62
2019-05-18T04:20:39.201Z,8.71
2019-05-18T04:21:38.217Z,8.74
2019-05-18T04:22:38.179Z,8.68
2019-05-18T04:23:38.173Z,8.77
2019-05-18T04:24:38.161Z,8.77
2019-05-18T04:25:38.170Z,8.71
2019-05-18T04:26:38.164Z,8.70
2019-05-18T04:27:38.126Z,8.79
2019-05-18T04:28:38.114Z,8.74
2019-05-18T04:29:38.100Z,8.81
2019-05-18T04:30:38.083Z,8.77
2019-05-18T04:31:38.130Z,8.77
2019-05-18T04:32:38.069Z,8.76
2019-05-18T04:33:38.085Z,8.80
2019-05-18T04:34:38.046Z,8.80
2019-05-18T04:35:38.132Z,8.80
2019-05-18T04:36:38.055Z,8.83
2019-05-18T04:37:38.084Z,8.89
2019-05-18T04:38:37.995Z,8.86
2019-05-18T04:39:37.987Z,8.89
2019-05-18T04:40:37.984Z,8.91
2019-05-18T04:41:37.990Z,8.96
2019-05-18T04:42:37.986Z,8.96
2019-05-18T04:43:38.008Z,8.99
2019-05-18T04:44:37.931Z,8.87
2019-05-18T04:45:37.920Z,8.84
2019-05-18T04:46:37.905Z,8.92
2019-05-18T04:47:37.910Z,8.92
2019-05-18T04:48:37.933Z,8.87
2019-05-18T04:49:37.904Z,8.83
2019-05-18T04:50:37.889Z,8.89
2019-05-18T04:51:37.866Z,8.92
2019-05-18T04:52:37.860Z,8.98
2019-05-18T04:53:37.839Z,8.96
2019-05-18T04:54:37.827Z,9.04
2019-05-18T04:55:37.855Z,9.04
2019-05-18T04:56:37.797Z,9.01
2019-05-18T04:57:37.824Z,9.10
2019-05-18T04:58:37.784Z,9.05
2019-05-18T04:59:37.773Z,8.98
2019-05-18T05:00:37.796Z,9.02
2019-05-18T05:01:37.738Z,9.04
2019-05-18T05:02:37.729Z,8.98
2019-05-18T05:03:37.736Z,9.02
2019-05-18T05:04:37.713Z,8.95
2019-05-18T05:05:37.692Z,8.98
2019-05-18T05:06:37.702Z,8.92
2019-05-18T05:07:37.676Z,8.99
2019-05-18T05:08:37.689Z,9.01
2019-05-18T05:09:37.658Z,9.02
2019-05-18T05:10:37.910Z,8.99
2019-05-18T05:11:37.663Z,8.99
2019-05-18T05:12:37.617Z,9.02
2019-05-18T05:13:37.612Z,9.04
2019-05-18T05:14:37.590Z,8.99
2019-05-18T05:15:38.315Z,9.10
2019-05-18T05:16:38.284Z,9.04
2019-05-18T05:17:37.557Z,9.04
2019-05-18T05:18:37.537Z,9.20
2019-05-18T05:19:37.551Z,9.15
2019-05-18T05:20:38.320Z,9.21
2019-05-18T05:21:37.537Z,9.24
2019-05-18T05:22:37.602Z,9.20
2019-05-18T05:23:37.499Z,9.21
2019-05-18T05:24:37.558Z,9.32
2019-05-18T05:25:37.490Z,9.36
2019-05-18T05:26:39.417Z,9.33
2019-05-18T05:27:37.463Z,9.39
2019-05-18T05:28:38.273Z,9.39
2019-05-18T05:29:37.424Z,9.42
2019-05-18T05:30:37.444Z,9.47
2019-05-18T05:31:37.403Z,9.38
2019-05-18T05:32:37.397Z,9.33
2019-05-18T05:33:37.379Z,9.48
2019-05-18T05:34:37.366Z,9.53
2019-05-18T05:35:37.937Z,9.51
2019-05-18T05:36:37.347Z,9.60
2019-05-18T05:37:37.410Z,9.64
2019-05-18T05:38:37.319Z,9.65
2019-05-18T05:39:37.321Z,9.60
2019-05-18T05:40:37.320Z,9.61
2019-05-18T05:41:37.320Z,9.64
2019-05-18T05:42:37.276Z,9.64
2019-05-18T05:43:37.293Z,9.57
2019-05-18T05:44:37.253Z,9.57
2019-05-18T05:45:37.245Z,9.57
2019-05-18T05:46:37.587Z,9.58
2019-05-18T05:47:37.245Z,9.71
2019-05-18T05:48:37.243Z,9.64
2019-05-18T05:49:37.204Z,9.75
2019-05-18T05:50:37.178Z,9.78
2019-05-18T05:51:37.170Z,9.72
2019-05-18T05:52:37.167Z,9.61
2019-05-18T05:53:37.187Z,9.66
2019-05-18T05:54:37.157Z,9.64
2019-05-18T05:55:37.126Z,9.61
2019-05-18T05:56:37.119Z,9.64
2019-05-18T05:57:37.112Z,9.66
2019-05-18T05:58:37.150Z,9.75
2019-05-18T05:59:37.097Z,9.75
2019-05-18T06:00:37.077Z,9.76
2019-05-18T06:01:37.065Z,9.74
2019-05-18T06:02:37.129Z,9.76
2019-05-18T06:03:37.072Z,9.81
2019-05-18T06:04:37.027Z,9.83
2019-05-18T06:05:37.052Z,9.81
2019-05-18T06:06:37.001Z,9.89
2019-05-18T06:07:36.995Z,9.89
2019-05-18T06:08:37.031Z,9.84
2019-05-18T06:09:36.975Z,9.90
2019-05-18T06:10:37.028Z,9.84
2019-05-18T06:11:36.984Z,9.83
2019-05-18T06:12:36.943Z,9.86
2019-05-18T06:13:36.942Z,10.08
2019-05-18T06:14:36.916Z,10.02
2019-05-18T06:15:36.908Z,9.99
2019-05-18T06:16:36.960Z,9.99
2019-05-18T06:17:36.985Z,10.01
2019-05-18T06:18:36.880Z,9.86
2019-05-18T06:19:36.867Z,9.86
2019-05-18T06:20:50.481Z,9.79
2019-05-18T06:21:37.880Z,9.75
2019-05-18T06:22:36.923Z,9.76
2019-05-18T06:23:36.817Z,9.89
2019-05-18T06:24:36.869Z,9.84
2019-05-18T06:25:36.804Z,9.83
2019-05-18T06:26:36.788Z,9.89
2019-05-18T06:27:36.767Z,9.96
2019-05-18T06:28:36.763Z,9.91
2019-05-18T06:29:36.780Z,9.87
2019-05-18T06:30:36.765Z,9.94
2019-05-18T06:31:36.722Z,9.99
2019-05-18T06:32:36.709Z,10.08
2019-05-18T06:33:36.710Z,10.09
2019-05-18T06:34:36.715Z,9.97
2019-05-18T06:35:36.685Z,10.15
2019-05-18T06:36:36.691Z,10.14
2019-05-18T06:37:36.658Z,10.11
2019-05-18T06:38:36.648Z,10.15
2019-05-18T06:39:36.666Z,10.17
2019-05-18T06:40:36.623Z,10.15
2019-05-18T06:41:36.613Z,10.34
2019-05-18T06:42:36.600Z,10.84
2019-05-18T06:43:36.603Z,11.27
2019-05-18T06:44:36.618Z,11.67
2019-05-18T06:45:36.561Z,11.98
2019-05-18T06:46:36.561Z,12.29
2019-05-18T06:47:36.545Z,12.35
2019-05-18T06:48:36.556Z,12.31
2019-05-18T06:49:36.532Z,12.35
2019-05-18T06:50:36.562Z,12.57
2019-05-18T06:51:36.535Z,12.87
2019-05-18T06:52:36.517Z,12.93
2019-05-18T06:53:36.483Z,12.87
2019-05-18T06:54:36.492Z,12.79
2019-05-18T06:55:36.463Z,12.77
2019-05-18T06:56:36.469Z,12.57
2019-05-18T06:57:36.473Z,12.23
2019-05-18T06:58:36.424Z,12.17
2019-05-18T06:59:36.468Z,12.31
2019-05-18T07:00:36.403Z,12.29
2019-05-18T07:01:36.389Z,12.10
2019-05-18T07:02:36.398Z,12.27
2019-05-18T07:03:36.363Z,12.52
2019-05-18T07:04:36.356Z,12.78
2019-05-18T07:05:36.362Z,12.74
2019-05-18T07:06:36.327Z,12.50
2019-05-18T07:07:36.358Z,12.52
2019-05-18T07:08:36.310Z,12.46
2019-05-18T07:09:36.304Z,12.28
2019-05-18T07:10:36.289Z,12.28
2019-05-18T07:11:36.333Z,12.50
2019-05-18T07:12:36.271Z,12.39
2019-05-18T07:13:36.283Z,12.28
2019-05-18T07:14:36.247Z,12.39
2019-05-18T07:15:36.229Z,12.62
2019-05-18T07:16:36.219Z,12.75
2019-05-18T07:17:36.245Z,12.89
2019-05-18T07:18:36.228Z,13.20
2019-05-18T07:19:36.190Z,12.92
2019-05-18T07:20:36.187Z,12.77
2019-05-18T07:21:36.187Z,12.85
2019-05-18T07:22:36.152Z,13.29
2019-05-18T07:23:36.179Z,13.38
2019-05-18T07:24:36.125Z,13.57
2019-05-18T07:25:36.124Z,13.71
2019-05-18T07:26:36.141Z,13.95
2019-05-18T07:27:36.105Z,14.12
2019-05-18T07:28:36.080Z,14.14
2019-05-18T07:29:36.067Z,14.29
2019-05-18T07:30:36.097Z,14.24
2019-05-18T07:31:36.078Z,14.27
2019-05-18T07:32:36.040Z,14.42
2019-05-18T07:33:36.032Z,14.54
2019-05-18T07:34:36.019Z,14.65
2019-05-18T07:35:36.036Z,14.61
2019-05-18T07:36:36.059Z,14.80
2019-05-18T07:37:36.012Z,15.03
2019-05-18T07:38:35.968Z,14.98
2019-05-18T07:39:36.243Z,15.27
2019-05-18T07:40:35.954Z,15.36
2019-05-18T07:41:46.346Z,15.49
2019-05-18T07:42:35.952Z,15.64
2019-05-18T07:43:36.918Z,15.78
2019-05-18T07:44:35.911Z,15.78
2019-05-18T07:45:35.893Z,16.04
2019-05-18T07:46:35.913Z,15.28
2019-05-18T07:47:35.879Z,14.92
2019-05-18T07:48:35.898Z,14.14
2019-05-18T07:49:35.852Z,13.89
2019-05-18T07:50:35.857Z,14.10
2019-05-18T07:51:37.370Z,14.12
2019-05-18T07:52:35.813Z,14.12
2019-05-18T07:53:35.803Z,14.10
2019-05-18T07:54:35.830Z,13.84
2019-05-18T07:55:35.970Z,13.67
2019-05-18T07:56:35.785Z,13.70
2019-05-18T07:57:35.766Z,13.42
2019-05-18T07:58:35.790Z,13.57
2019-05-18T07:59:35.752Z,13.84
2019-05-18T08:00:35.791Z,14.09
2019-05-18T08:01:35.719Z,14.27
2019-05-18T08:02:35.704Z,14.37
2019-05-18T08:03:35.688Z,14.40
2019-05-18T08:04:35.778Z,14.29
2019-05-18T08:05:35.899Z,14.25
2019-05-18T08:06:35.664Z,14.21
2019-05-18T08:07:35.651Z,14.25
2019-05-18T08:08:35.701Z,14.25
2019-05-18T08:09:35.626Z,14.52
2019-05-18T08:10:35.645Z,14.65
2019-05-18T08:11:35.634Z,14.98
2019-05-18T08:12:35.591Z,15.23
2019-05-18T08:13:35.594Z,15.43
2019-05-18T08:14:35.612Z,15.53
2019-05-18T08:15:35.597Z,15.07
2019-05-18T08:16:35.628Z,14.95
2019-05-18T08:17:35.536Z,15.11
2019-05-18T08:18:35.565Z,14.89
2019-05-18T08:19:35.529Z,14.25
2019-05-18T08:20:35.506Z,14.36
2019-05-18T08:21:35.529Z,14.25
2019-05-18T08:22:36.327Z,14.40
2019-05-18T08:23:35.466Z,14.57
2019-05-18T08:24:35.496Z,14.86
2019-05-18T08:25:35.445Z,14.92
2019-05-18T08:26:35.436Z,15.17
2019-05-18T08:27:35.489Z,15.39
2019-05-18T08:28:35.461Z,15.06
2019-05-18T08:29:35.406Z,14.96
2019-05-18T08:30:35.397Z,14.92
2019-05-18T08:31:35.389Z,14.99
2019-05-18T08:32:35.472Z,15.23
2019-05-18T08:33:35.427Z,15.34
2019-05-18T08:34:35.371Z,15.46
2019-05-18T08:35:35.352Z,15.02
2019-05-18T08:36:35.321Z,14.95
2019-05-18T08:37:35.312Z,14.99
2019-05-18T08:38:35.371Z,14.62
2019-05-18T08:39:35.290Z,14.39
2019-05-18T08:40:35.285Z,14.45
2019-05-18T08:41:35.297Z,14.45
2019-05-18T08:42:35.278Z,14.18
2019-05-18T08:43:35.267Z,14.02
2019-05-18T08:44:35.225Z,14.02
2019-05-18T08:45:35.226Z,14.29
2019-05-18T08:46:35.865Z,14.58
2019-05-18T08:47:35.283Z,14.77
2019-05-18T08:48:35.192Z,15.11
2019-05-18T08:49:35.176Z,15.38
2019-05-18T08:50:35.168Z,15.41
2019-05-18T08:51:35.197Z,15.47
2019-05-18T08:52:35.240Z,15.35
2019-05-18T08:53:35.133Z,14.81
2019-05-18T08:54:35.118Z,14.69
2019-05-18T08:55:35.140Z,14.62
2019-05-18T08:56:35.105Z,14.80
2019-05-18T08:57:35.837Z,14.98
2019-05-18T08:58:35.136Z,15.38
2019-05-18T08:59:35.073Z,15.57
2019-05-18T09:00:35.091Z,15.54
2019-05-18T09:01:35.045Z,15.83
2019-05-18T09:02:35.057Z,15.71
2019-05-18T09:03:35.036Z,15.47
2019-05-18T09:04:35.018Z,15.54
2019-05-18T09:05:35.042Z,15.72
2019-05-18T09:06:34.991Z,15.68
2019-05-18T09:07:34.981Z,15.10
2019-05-18T09:08:34.975Z,15.01
2019-05-18T09:09:34.954Z,14.99
2019-05-18T09:10:34.970Z,14.96
2019-05-18T09:11:34.951Z,15.06
2019-05-18T09:12:34.915Z,15.19
2019-05-18T09:13:34.909Z,15.34
2019-05-18T09:14:34.889Z,15.39
2019-05-18T09:15:34.925Z,15.03
2019-05-18T09:16:34.876Z,15.14
2019-05-18T09:17:34.886Z,15.31
2019-05-18T09:18:34.847Z,15.46
2019-05-18T09:19:34.880Z,15.65
2019-05-18T09:20:35.007Z,15.94
2019-05-18T09:21:34.821Z,16.17
2019-05-18T09:22:34.833Z,16.23
2019-05-18T09:23:34.793Z,16.05
2019-05-18T09:24:34.787Z,16.14
2019-05-18T09:25:34.836Z,16.30
2019-05-18T09:26:34.760Z,16.21
2019-05-18T09:27:34.748Z,16.30
2019-05-18T09:28:34.759Z,16.30
2019-05-18T09:29:34.733Z,16.33
2019-05-18T09:30:34.798Z,16.01
2019-05-18T09:31:34.707Z,15.64
2019-05-18T09:32:34.698Z,15.65
2019-05-18T09:33:34.691Z,15.59
2019-05-18T09:34:34.671Z,15.50
2019-05-18T09:35:34.739Z,15.75
2019-05-18T09:36:34.713Z,15.80
2019-05-18T09:37:37.861Z,15.96
2019-05-18T09:38:34.638Z,16.27
2019-05-18T09:39:34.622Z,16.33
2019-05-18T09:40:36.413Z,15.82
2019-05-18T09:41:34.620Z,15.65
2019-05-18T09:42:34.573Z,15.90
2019-05-18T09:43:34.593Z,16.08
2019-05-18T09:44:34.821Z,16.31
2019-05-18T09:45:34.553Z,16.48
2019-05-18T09:46:34.562Z,16.23
2019-05-18T09:47:34.556Z,16.24
2019-05-18T09:48:34.536Z,16.24
2019-05-18T09:49:34.537Z,16.35
2019-05-18T09:50:34.503Z,16.43
2019-05-18T09:51:34.482Z,16.08
2019-05-18T09:52:45.047Z,16.00
2019-05-18T09:53:35.475Z,16.11
2019-05-18T09:54:34.464Z,15.82
2019-05-18T09:55:34.448Z,15.67
2019-05-18T09:56:34.448Z,15.78
2019-05-18T09:57:34.437Z,16.05
2019-05-18T09:58:35.338Z,16.01
2019-05-18T09:59:34.406Z,16.05
2019-05-18T10:00:38.582Z,16.07
2019-05-18T10:01:34.381Z,16.27
2019-05-18T10:02:34.388Z,16.30
2019-05-18T10:03:34.407Z,16.23
2019-05-18T10:04:34.355Z,16.31
2019-05-18T10:05:34.329Z,16.33
2019-05-18T10:06:34.323Z,16.11
2019-05-18T10:07:34.399Z,15.60
2019-05-18T10:08:34.295Z,15.62
2019-05-18T10:09:39.331Z,15.82
2019-05-18T10:10:34.282Z,16.00
2019-05-18T10:11:38.362Z,16.20
2019-05-18T10:12:34.302Z,16.50
2019-05-18T10:13:34.244Z,16.71
2019-05-18T10:14:34.231Z,16.24
2019-05-18T10:15:34.223Z,16.20
2019-05-18T10:16:34.204Z,16.28
2019-05-18T10:17:34.226Z,16.31
2019-05-18T10:18:34.189Z,16.52
2019-05-18T10:19:34.162Z,16.73
2019-05-18T10:20:34.197Z,16.35
2019-05-18T10:21:34.182Z,16.07
2019-05-18T10:22:34.182Z,15.90
2019-05-18T10:23:34.124Z,15.68
2019-05-18T10:24:34.112Z,15.62
2019-05-18T10:25:34.104Z,15.67
2019-05-18T10:26:34.090Z,15.82
2019-05-18T10:27:34.151Z,15.96
2019-05-18T10:28:34.069Z,16.08
2019-05-18T10:29:34.068Z,15.84
2019-05-18T10:30:34.039Z,15.90
2019-05-18T10:31:34.031Z,15.96
2019-05-18T10:32:34.048Z,16.08
2019-05-18T10:33:34.039Z,16.07
2019-05-18T10:34:34.004Z,15.84
2019-05-18T10:35:34.010Z,15.65
2019-05-18T10:36:33.988Z,15.64
2019-05-18T10:37:33.972Z,15.47
2019-05-18T10:38:34.028Z,15.09
2019-05-18T10:39:34.001Z,14.80
2019-05-18T10:40:33.930Z,14.86
2019-05-18T10:41:33.951Z,14.92
2019-05-18T10:42:33.911Z,15.10
2019-05-18T10:43:33.904Z,15.56
2019-05-18T10:44:33.888Z,15.75
2019-05-18T10:45:33.914Z,16.08
2019-05-18T10:46:33.893Z,16.34
2019-05-18T10:47:33.882Z,16.38
2019-05-18T10:48:33.850Z,16.43
2019-05-18T10:49:33.837Z,16.66
2019-05-18T10:50:33.829Z,16.82
2019-05-18T10:51:33.843Z,16.97
2019-05-18T10:52:33.794Z,17.26
2019-05-18T10:53:33.827Z,17.08
2019-05-18T10:54:33.819Z,16.79
2019-05-18T10:55:33.773Z,16.50
2019-05-18T10:56:33.779Z,16.30
2019-05-18T10:57:33.749Z,16.41
2019-05-18T10:58:33.729Z,16.42
2019-05-18T10:59:33.763Z,16.48
2019-05-18T11:00:33.718Z,16.04
2019-05-18T11:01:33.729Z,15.50
2019-05-18T11:02:33.690Z,15.14
2019-05-18T11:03:33.688Z,14.98
2019-05-18T11:04:33.691Z,15.29
2019-05-18T11:05:33.652Z,15.51
2019-05-18T11:06:33.643Z,15.62
2019-05-18T11:07:33.750Z,15.97
2019-05-18T11:08:33.623Z,16.08
2019-05-18T11:09:33.626Z,16.07
2019-05-18T11:10:33.623Z,16.09
2019-05-18T11:11:33.586Z,16.21
2019-05-18T11:12:33.597Z,16.15
2019-05-18T11:13:33.578Z,16.23
2019-05-18T11:14:33.553Z,16.46
2019-05-18T11:15:33.582Z,16.75
2019-05-18T11:16:33.587Z,16.97
2019-05-18T11:17:33.567Z,16.96
2019-05-18T11:18:33.521Z,17.08
2019-05-18T11:19:33.495Z,17.19
2019-05-18T11:20:33.523Z,17.31
2019-05-18T11:21:33.502Z,17.46
2019-05-18T11:22:33.499Z,17.55
2019-05-18T11:23:43.108Z,17.49
2019-05-18T11:24:34.455Z,17.26
2019-05-18T11:25:33.464Z,17.30
2019-05-18T11:26:33.440Z,17.11
2019-05-18T11:27:33.410Z,16.73
2019-05-18T11:28:33.440Z,16.56
2019-05-18T11:29:33.407Z,16.66
2019-05-18T11:30:33.416Z,16.53
2019-05-18T11:31:33.366Z,16.58
2019-05-18T11:32:33.364Z,16.89
2019-05-18T11:33:33.400Z,17.08
2019-05-18T11:34:33.330Z,17.46
2019-05-18T11:35:33.347Z,17.36
2019-05-18T11:36:36.395Z,17.26
2019-05-18T11:37:33.343Z,16.96
2019-05-18T11:38:33.281Z,16.86
2019-05-18T11:39:33.279Z,16.82
2019-05-18T11:40:33.313Z,16.46
2019-05-18T11:41:33.294Z,16.48
2019-05-18T11:42:33.283Z,16.63
2019-05-18T11:43:33.233Z,16.76
2019-05-18T11:44:33.293Z,16.49
2019-05-18T11:45:33.210Z,16.42
2019-05-18T11:46:33.200Z,16.68
2019-05-18T11:47:38.560Z,17.00
2019-05-18T11:48:33.173Z,17.28
2019-05-18T11:49:33.170Z,17.25
2019-05-18T11:50:33.151Z,17.44
2019-05-18T11:51:33.452Z,17.51
2019-05-18T11:52:33.185Z,17.70
2019-05-18T11:53:33.124Z,17.89
2019-05-18T11:54:33.121Z,17.92
2019-05-18T11:55:33.122Z,18.03
2019-05-18T11:56:33.078Z,18.27
2019-05-18T11:57:33.421Z,18.50
2019-05-18T11:58:33.057Z,18.76
2019-05-18T11:59:33.058Z,19.00
2019-05-18T12:00:33.244Z,18.94
2019-05-18T12:01:33.044Z,18.41
2019-05-18T12:02:33.019Z,18.25
2019-05-18T12:03:33.112Z,17.95
2019-05-18T12:04:33.016Z,18.02
2019-05-18T12:05:32.991Z,18.26
2019-05-18T12:06:33.013Z,18.37
2019-05-18T12:07:32.968Z,18.51
2019-05-18T12:08:32.960Z,18.41
2019-05-18T12:09:32.981Z,18.12
2019-05-18T12:10:32.936Z,18.30
2019-05-18T12:11:32.913Z,18.54
2019-05-18T12:12:32.909Z,18.85
2019-05-18T12:13:32.894Z,19.14
2019-05-18T12:14:34.420Z,19.21
2019-05-18T12:15:33.031Z,19.58
2019-05-18T12:16:33.040Z,19.62
2019-05-18T12:17:32.850Z,19.56
2019-05-18T12:18:32.859Z,19.58
2019-05-18T12:19:32.822Z,19.69
2019-05-18T12:20:32.849Z,19.88
2019-05-18T12:21:32.810Z,20.02
2019-05-18T12:22:32.822Z,20.20
2019-05-18T12:23:32.791Z,20.39
2019-05-18T12:24:32.806Z,20.39
2019-05-18T12:25:32.764Z,20.21
2019-05-18T12:26:32.767Z,20.41
2019-05-18T12:27:32.752Z,20.52
2019-05-18T12:28:32.756Z,20.67
2019-05-18T12:29:32.717Z,20.87
2019-05-18T12:30:32.902Z,20.99
2019-05-18T12:31:32.707Z,21.06
2019-05-18T12:32:32.682Z,21.10
2019-05-18T12:33:32.724Z,20.94
2019-05-18T12:34:32.660Z,20.67
2019-05-18T12:35:32.659Z,20.61
2019-05-18T12:36:32.703Z,20.38
2019-05-18T12:37:32.644Z,19.98
2019-05-18T12:38:32.618Z,19.55
2019-05-18T12:39:32.659Z,19.65
2019-05-18T12:40:32.602Z,19.78
2019-05-18T12:41:32.592Z,19.61
2019-05-18T12:42:32.576Z,19.33
2019-05-18T12:43:32.632Z,19.28
2019-05-18T12:44:32.555Z,19.25
2019-05-18T12:45:32.604Z,19.11
2019-05-18T12:46:32.533Z,19.13
2019-05-18T12:47:34.420Z,19.25
2019-05-18T12:48:32.507Z,19.36
2019-05-18T12:49:32.545Z,19.62
2019-05-18T12:50:32.491Z,19.95
2019-05-18T12:51:32.473Z,20.20
2019-05-18T12:52:32.480Z,19.71
2019-05-18T12:53:32.451Z,19.68
2019-05-18T12:54:45.551Z,19.63
2019-05-18T12:55:33.469Z,19.58
2019-05-18T12:56:32.431Z,19.59
2019-05-18T12:57:32.408Z,19.71
2019-05-18T12:58:32.400Z,19.54
2019-05-18T12:59:32.405Z,19.76
2019-05-18T13:00:32.391Z,19.81
2019-05-18T13:01:32.386Z,19.63
2019-05-18T13:02:32.349Z,19.68
2019-05-18T13:03:32.347Z,19.74
2019-05-18T13:04:32.378Z,20.02
2019-05-18T13:05:32.326Z,20.21